createdAt,value
2023-03-29T00:02:02.861Z,7.48
2023-03-29T00:04:29.661Z,7.49
2023-03-29T00:06:56.863Z,7.51
2023-03-29T00:09:23.385Z,7.49
2023-03-29T00:11:49.920Z,7.47
2023-03-29T00:14:16.513Z,7.52
2023-03-29T00:16:44.912Z,7.53
2023-03-29T00:19:11.635Z,7.59
2023-03-29T00:21:38.189Z,7.58
2023-03-29T00:24:05.018Z,7.56
2023-03-29T00:26:31.573Z,7.57
2023-03-29T00:28:58.085Z,7.55
2023-03-29T00:31:24.793Z,7.52
2023-03-29T00:33:51.394Z,7.55
2023-03-29T00:36:18.274Z,7.55
2023-03-29T00:38:44.802Z,7.58
2023-03-29T00:41:11.872Z,7.57
2023-03-29T00:44:01.621Z,7.51
2023-03-29T00:46:31.880Z,7.47
2023-03-29T00:49:12.878Z,7.45
2023-03-29T00:51:41.464Z,7.43
2023-03-29T00:54:14.936Z,7.43
2023-03-29T00:56:46.112Z,7.45
2023-03-29T00:59:18.793Z,7.44
2023-03-29T01:02:05.688Z,7.41
2023-03-29T01:04:42.665Z,7.36
2023-03-29T01:07:26.133Z,7.28
2023-03-29T01:10:04.627Z,7.24
2023-03-29T01:12:37.825Z,7.20
2023-03-29T01:15:14.011Z,7.20
2023-03-29T01:17:43.408Z,7.16
2023-03-29T01:20:20.216Z,7.15
2023-03-29T01:22:52.487Z,7.07
2023-03-29T01:25:26.218Z,6.98
2023-03-29T01:28:02.961Z,6.99
2023-03-29T01:30:52.039Z,6.96
2023-03-29T01:33:23.628Z,6.96
2023-03-29T01:36:16.581Z,6.98
2023-03-29T01:39:03.606Z,6.98
2023-03-29T01:41:48.232Z,6.94
2023-03-29T01:44:44.148Z,6.88
2023-03-29T01:47:23.453Z,6.89
2023-03-29T01:49:57.545Z,6.94
2023-03-29T01:52:32.070Z,6.91
2023-03-29T01:55:08.867Z,6.83
2023-03-29T01:57:39.763Z,6.78
2023-03-29T02:00:11.092Z,6.77
2023-03-29T02:02:41.725Z,6.89
2023-03-29T02:05:10.115Z,6.94
2023-03-29T02:07:38.390Z,7.07
2023-03-29T02:10:07.225Z,7.17
2023-03-29T02:12:34.096Z,7.23
2023-03-29T02:15:04.694Z,7.26
2023-03-29T02:17:31.264Z,7.31
2023-03-29T02:20:08.063Z,7.34
2023-03-29T02:22:44.022Z,7.37
2023-03-29T02:25:10.745Z,7.37
2023-03-29T02:27:38.095Z,7.40
2023-03-29T02:30:10.867Z,7.36
2023-03-29T02:33:02.006Z,7.39
2023-03-29T02:35:36.476Z,7.40
2023-03-29T02:38:06.420Z,7.40
2023-03-29T02:40:34.882Z,7.38
2023-03-29T02:43:03.232Z,7.42
2023-03-29T02:45:30.945Z,7.46
2023-03-29T02:48:02.084Z,7.45
2023-03-29T02:50:32.358Z,7.43
2023-03-29T02:53:04.742Z,7.49
2023-03-29T02:55:34.977Z,7.49
2023-03-29T02:58:08.076Z,7.51
2023-03-29T03:00:42.171Z,7.51
2023-03-29T03:03:10.318Z,7.51
2023-03-29T03:05:38.262Z,7.51
2023-03-29T03:08:07.271Z,7.53
2023-03-29T03:10:35.101Z,7.53
2023-03-29T03:13:02.133Z,7.55
2023-03-29T03:15:28.706Z,7.56
2023-03-29T03:17:56.221Z,7.56
2023-03-29T03:20:22.987Z,7.58
2023-03-29T03:22:49.600Z,7.56
2023-03-29T03:25:19.509Z,7.57
2023-03-29T03:27:46.412Z,7.56
2023-03-29T03:30:13.242Z,7.54
2023-03-29T03:32:39.823Z,7.54
2023-03-29T03:35:07.558Z,7.53
2023-03-29T03:37:34.296Z,7.51
2023-03-29T03:40:00.838Z,7.52
2023-03-29T03:42:28.758Z,7.53
2023-03-29T03:44:55.781Z,7.56
2023-03-29T03:47:22.815Z,7.57
2023-03-29T03:49:49.355Z,7.56
2023-03-29T03:52:16.414Z,7.60
2023-03-29T03:54:43.192Z,7.61
2023-03-29T03:57:09.789Z,7.61
2023-03-29T03:59:36.989Z,7.61
2023-03-29T04:02:03.598Z,7.64
2023-03-29T04:04:30.895Z,7.65
2023-03-29T04:07:02.771Z,7.65
2023-03-29T04:09:34.046Z,7.67
2023-03-29T04:12:01.618Z,7.68
2023-03-29T04:14:28.283Z,7.67
2023-03-29T04:16:55.311Z,7.71
2023-03-29T04:19:22.017Z,7.73
2023-03-29T04:21:49.613Z,7.79
2023-03-29T04:24:16.361Z,7.82
2023-03-29T04:26:43.903Z,7.85
2023-03-29T04:29:10.993Z,7.91
2023-03-29T04:31:37.774Z,7.92
2023-03-29T04:34:04.537Z,7.94
2023-03-29T04:36:31.157Z,7.96
2023-03-29T04:38:58.667Z,7.97
2023-03-29T04:41:25.402Z,7.96
2023-03-29T04:43:52.203Z,7.96
2023-03-29T04:46:18.806Z,7.98
2023-03-29T04:48:45.333Z,7.98
2023-03-29T04:51:12.778Z,8.04
2023-03-29T04:53:39.358Z,8.02
2023-03-29T04:56:06.695Z,8.02
2023-03-29T04:58:33.240Z,8.02
2023-03-29T05:00:59.976Z,8.00
2023-03-29T05:03:27.082Z,8.01
2023-03-29T05:05:53.880Z,7.98
2023-03-29T05:08:20.674Z,8.00
2023-03-29T05:10:49.852Z,7.99
2023-03-29T05:13:16.858Z,8.02
2023-03-29T05:15:43.393Z,8.01
2023-03-29T05:18:10.685Z,8.02
2023-03-29T05:20:38.097Z,8.04
2023-03-29T05:23:04.597Z,8.05
2023-03-29T05:25:31.183Z,8.05
2023-03-29T05:27:58.824Z,8.07
2023-03-29T05:30:25.648Z,8.08
2023-03-29T05:32:52.880Z,8.10
2023-03-29T05:35:19.508Z,8.11
2023-03-29T05:37:47.374Z,8.12
2023-03-29T05:40:13.942Z,8.12
2023-03-29T05:42:40.466Z,8.16
2023-03-29T05:45:07.768Z,8.19
2023-03-29T05:47:34.407Z,8.20
2023-03-29T05:50:01.049Z,8.22
2023-03-29T05:52:27.621Z,8.25
2023-03-29T05:54:54.216Z,8.27
2023-03-29T05:57:21.538Z,8.30
2023-03-29T05:59:48.153Z,8.30
2023-03-29T06:02:16.003Z,8.31
2023-03-29T06:04:43.765Z,8.34
2023-03-29T06:07:12.563Z,8.33
2023-03-29T06:09:39.814Z,8.36
2023-03-29T06:12:07.410Z,8.37
2023-03-29T06:14:34.166Z,8.41
2023-03-29T06:17:01.800Z,8.41
2023-03-29T06:19:28.437Z,8.43
2023-03-29T06:21:55.009Z,8.44
2023-03-29T06:24:21.589Z,8.47
2023-03-29T06:26:48.149Z,8.50
2023-03-29T06:29:14.840Z,8.56
2023-03-29T06:31:42.252Z,8.60
2023-03-29T06:34:08.891Z,8.64
2023-03-29T06:36:35.540Z,8.66
2023-03-29T06:39:06.536Z,8.69
2023-03-29T06:41:33.046Z,8.72
2023-03-29T06:43:59.710Z,8.75
2023-03-29T06:46:27.133Z,8.75
2023-03-29T06:48:53.779Z,8.80
2023-03-29T06:51:23.110Z,8.85
2023-03-29T06:53:49.858Z,8.88
2023-03-29T06:56:17.671Z,8.94
2023-03-29T06:58:45.049Z,9.02
2023-03-29T07:01:11.880Z,9.07
2023-03-29T07:03:39.432Z,9.18
2023-03-29T07:06:10.167Z,9.28
2023-03-29T07:08:43.390Z,9.40
2023-03-29T07:11:12.655Z,9.52
2023-03-29T07:13:43.099Z,9.63
2023-03-29T07:16:14.504Z,9.70
2023-03-29T07:18:42.832Z,9.77
2023-03-29T07:21:11.716Z,9.90
2023-03-29T07:23:39.089Z,9.95
2023-03-29T07:26:10.454Z,9.93
2023-03-29T07:28:40.094Z,9.87
2023-03-29T07:31:10.840Z,9.91
2023-03-29T07:33:38.270Z,9.87
2023-03-29T07:36:06.096Z,9.79
2023-03-29T07:38:32.896Z,9.78
2023-03-29T07:40:59.698Z,9.76
2023-03-29T07:43:26.441Z,9.80
2023-03-29T07:45:53.150Z,9.91
2023-03-29T07:48:19.712Z,10.09
2023-03-29T07:50:46.381Z,10.21
2023-03-29T07:53:13.140Z,10.33
2023-03-29T07:55:47.349Z,10.45
2023-03-29T07:58:14.717Z,10.45
2023-03-29T08:00:41.667Z,10.42
2023-03-29T08:03:11.207Z,10.35
2023-03-29T08:05:41.660Z,10.31
2023-03-29T08:08:09.814Z,10.35
2023-03-29T08:10:39.184Z,10.39
2023-03-29T08:13:08.457Z,10.52
2023-03-29T08:15:39.948Z,10.67
2023-03-29T08:18:10.089Z,10.80
2023-03-29T08:20:36.691Z,10.84
2023-03-29T08:23:03.260Z,10.74
2023-03-29T08:25:29.951Z,10.74
2023-03-29T08:27:56.662Z,10.65
2023-03-29T08:30:23.240Z,10.71
2023-03-29T08:32:51.659Z,10.70
2023-03-29T08:35:20.713Z,10.74
2023-03-29T08:37:47.326Z,10.80
2023-03-29T08:40:21.680Z,10.70
2023-03-29T08:43:24.031Z,10.83
2023-03-29T08:46:18.462Z,10.83
2023-03-29T08:48:51.016Z,10.79
2023-03-29T08:51:26.070Z,10.82
2023-03-29T08:53:56.829Z,10.80
2023-03-29T08:56:27.557Z,10.87
2023-03-29T08:58:56.398Z,11.02
2023-03-29T09:01:24.372Z,11.13
2023-03-29T09:04:13.986Z,11.11
2023-03-29T09:06:40.852Z,11.30
2023-03-29T09:09:14.774Z,11.56
2023-03-29T09:11:56.606Z,11.82
2023-03-29T09:14:29.077Z,11.73
2023-03-29T09:16:58.272Z,11.96
2023-03-29T09:20:02.830Z,11.75
2023-03-29T09:22:47.927Z,11.63
2023-03-29T09:25:50.746Z,11.74
2023-03-29T09:28:25.364Z,11.99
2023-03-29T09:31:02.645Z,12.05
2023-03-29T09:33:42.606Z,12.01
2023-03-29T09:36:11.863Z,12.04
2023-03-29T09:38:43.448Z,11.95
2023-03-29T09:41:34.980Z,11.86
2023-03-29T09:44:12.746Z,12.08
2023-03-29T09:46:53.862Z,12.21
2023-03-29T09:49:29.713Z,12.25
2023-03-29T09:52:01.430Z,12.25
2023-03-29T09:54:28.329Z,12.22
2023-03-29T09:56:55.059Z,12.26
2023-03-29T09:59:21.883Z,12.17
2023-03-29T10:01:48.486Z,12.21
2023-03-29T10:04:16.675Z,12.26
2023-03-29T10:06:50.300Z,12.34
2023-03-29T10:09:21.005Z,12.46
2023-03-29T10:11:52.446Z,12.60
2023-03-29T10:14:40.955Z,12.74
2023-03-29T10:17:40.633Z,12.89
2023-03-29T10:20:13.141Z,12.93
2023-03-29T10:22:48.676Z,12.93
2023-03-29T10:25:18.107Z,13.12
2023-03-29T10:27:47.277Z,13.20
2023-03-29T10:30:25.416Z,13.39
2023-03-29T10:32:58.166Z,13.42
2023-03-29T10:35:40.363Z,13.66
2023-03-29T10:38:12.510Z,13.64
2023-03-29T10:40:43.485Z,13.90
2023-03-29T10:43:27.189Z,13.95
2023-03-29T10:45:56.240Z,13.92
2023-03-29T10:48:29.805Z,13.70
2023-03-29T10:51:01.762Z,13.54
2023-03-29T10:53:32.657Z,13.59
2023-03-29T10:56:11.292Z,13.65
2023-03-29T10:58:56.285Z,13.70
2023-03-29T11:02:15.225Z,13.89
2023-03-29T11:05:01.089Z,14.27
2023-03-29T11:07:35.654Z,14.24
2023-03-29T11:10:18.045Z,14.31
2023-03-29T11:13:01.913Z,14.44
2023-03-29T11:15:43.462Z,14.59
2023-03-29T11:18:30.550Z,15.01
2023-03-29T11:21:21.184Z,15.46
2023-03-29T11:24:02.773Z,15.87
2023-03-29T11:26:36.959Z,15.99
2023-03-29T11:29:18.547Z,16.07
2023-03-29T11:32:03.787Z,16.21
2023-03-29T11:34:52.639Z,16.59
2023-03-29T11:37:28.613Z,16.80
2023-03-29T11:40:36.112Z,16.51
2023-03-29T11:43:11.268Z,16.19
2023-03-29T11:46:06.507Z,16.07
2023-03-29T11:48:40.255Z,16.09
2023-03-29T11:51:25.874Z,16.24
2023-03-29T11:54:13.569Z,16.25
2023-03-29T11:56:46.941Z,16.08
2023-03-29T11:59:24.859Z,16.03
2023-03-29T12:01:57.489Z,15.99
2023-03-29T12:04:32.367Z,16.05
2023-03-29T12:07:09.291Z,15.92
2023-03-29T12:09:50.321Z,15.36
2023-03-29T12:12:25.054Z,15.41
2023-03-29T12:15:20.235Z,15.56
2023-03-29T12:18:01.243Z,15.48
2023-03-29T12:20:32.335Z,15.41
2023-03-29T12:22:59.239Z,15.58
2023-03-29T12:25:41.655Z,15.81
2023-03-29T12:28:33.227Z,16.03
2023-03-29T12:31:21.856Z,16.04
2023-03-29T12:34:12.341Z,15.90
2023-03-29T12:37:00.757Z,15.96
2023-03-29T12:39:29.744Z,15.79
2023-03-29T12:42:13.459Z,15.87
2023-03-29T12:44:43.908Z,15.89
2023-03-29T12:47:20.444Z,15.91
2023-03-29T12:49:47.665Z,15.95
2023-03-29T12:52:22.174Z,16.02
2023-03-29T12:54:57.875Z,16.26
2023-03-29T12:57:40.109Z,16.36
2023-03-29T13:00:45.594Z,16.13
2023-03-29T13:03:39.843Z,16.19
2023-03-29T13:06:09.460Z,16.27
2023-03-29T13:08:42.370Z,16.37
2023-03-29T13:11:27.548Z,16.01
2023-03-29T13:13:54.143Z,15.98
2023-03-29T13:16:30.579Z,15.83
2023-03-29T13:19:21.560Z,15.72
2023-03-29T13:22:21.710Z,15.64
2023-03-29T13:25:02.396Z,15.49
2023-03-29T13:28:02.382Z,15.50
2023-03-29T13:30:53.030Z,15.42
2023-03-29T13:33:37.049Z,15.50
2023-03-29T13:36:16.604Z,15.53
2023-03-29T13:38:51.691Z,15.63
2023-03-29T13:41:39.504Z,15.58
2023-03-29T13:44:33.934Z,15.49
2023-03-29T13:47:32.774Z,15.45
2023-03-29T13:50:05.269Z,15.53
2023-03-29T13:52:40.191Z,15.60
2023-03-29T13:55:24.602Z,15.55
2023-03-29T13:57:57.495Z,15.72
2023-03-29T14:00:36.775Z,15.85
2023-03-29T14:03:09.621Z,15.75
2023-03-29T14:05:39.869Z,15.86
2023-03-29T14:08:23.419Z,16.00
2023-03-29T14:10:50.323Z,16.06
2023-03-29T14:13:19.380Z,16.06
2023-03-29T14:15:51.656Z,15.98
2023-03-29T14:18:22.265Z,16.10
2023-03-29T14:20:55.538Z,16.22
2023-03-29T14:23:28.499Z,16.23
2023-03-29T14:25:55.143Z,16.19
2023-03-29T14:28:27.884Z,16.19
2023-03-29T14:30:56.110Z,16.17
2023-03-29T14:33:38.097Z,16.13
2023-03-29T14:36:05.873Z,16.20
2023-03-29T14:38:33.022Z,16.26
2023-03-29T14:41:01.510Z,16.32
2023-03-29T14:43:31.295Z,16.25
2023-03-29T14:46:00.447Z,16.31
2023-03-29T14:48:28.065Z,16.21
2023-03-29T14:50:54.801Z,16.05
2023-03-29T14:53:23.605Z,16.08
2023-03-29T14:55:52.381Z,16.14
2023-03-29T14:58:31.901Z,16.18
2023-03-29T15:01:13.689Z,16.22
2023-03-29T15:04:02.439Z,16.15
2023-03-29T15:06:30.234Z,16.17
2023-03-29T15:09:05.134Z,16.26
2023-03-29T15:11:34.421Z,16.15
2023-03-29T15:14:03.070Z,16.11
2023-03-29T15:16:30.812Z,16.07
2023-03-29T15:18:58.588Z,16.12
2023-03-29T15:21:33.149Z,16.10
2023-03-29T15:24:02.262Z,16.10
2023-03-29T15:26:34.716Z,16.14
2023-03-29T15:29:23.674Z,16.24
2023-03-29T15:31:57.683Z,16.30
2023-03-29T15:34:29.344Z,16.27
2023-03-29T15:36:57.929Z,16.24
2023-03-29T15:39:25.292Z,16.18
2023-03-29T15:41:53.251Z,16.15
2023-03-29T15:44:27.955Z,16.16
2023-03-29T15:46:55.654Z,16.11
2023-03-29T15:49:22.264Z,16.04
2023-03-29T15:51:48.906Z,16.00
2023-03-29T15:54:15.702Z,15.94
2023-03-29T15:56:50.207Z,15.90
2023-03-29T15:59:18.160Z,15.91
2023-03-29T16:01:45.085Z,15.87
2023-03-29T16:04:17.131Z,15.84
2023-03-29T16:06:48.628Z,15.83
2023-03-29T16:09:17.148Z,15.81
2023-03-29T16:11:44.988Z,15.80
2023-03-29T16:14:27.400Z,15.77
2023-03-29T16:17:00.851Z,15.75
2023-03-29T16:19:30.080Z,15.73
2023-03-29T16:21:57.618Z,15.73
2023-03-29T16:24:29.932Z,15.69
2023-03-29T16:26:57.801Z,15.65
2023-03-29T16:29:25.338Z,15.63
2023-03-29T16:31:53.194Z,15.64
2023-03-29T16:34:20.615Z,15.66
2023-03-29T16:36:49.123Z,15.66
2023-03-29T16:39:16.689Z,15.60
2023-03-29T16:41:43.305Z,15.54
2023-03-29T16:44:16.175Z,15.53
2023-03-29T16:46:42.862Z,15.52
2023-03-29T16:49:17.982Z,15.45
2023-03-29T16:51:46.861Z,15.40
2023-03-29T16:54:14.287Z,15.37
2023-03-29T16:56:41.336Z,15.33
2023-03-29T16:59:09.159Z,15.30
2023-03-29T17:01:36.470Z,15.24
2023-03-29T17:04:04.124Z,15.19
2023-03-29T17:06:32.545Z,15.18
2023-03-29T17:08:59.382Z,15.16
2023-03-29T17:11:26.911Z,15.16
2023-03-29T17:13:54.005Z,15.14
2023-03-29T17:16:21.890Z,15.17
2023-03-29T17:18:48.498Z,15.11
2023-03-29T17:21:15.513Z,15.08
2023-03-29T17:23:42.127Z,15.04
2023-03-29T17:26:08.723Z,15.03
2023-03-29T17:28:35.880Z,15.00
2023-03-29T17:31:09.697Z,14.92
2023-03-29T17:33:36.672Z,14.88
2023-03-29T17:36:05.175Z,14.87
2023-03-29T17:38:34.238Z,14.80
2023-03-29T17:41:01.561Z,14.71
2023-03-29T17:43:28.914Z,14.73
2023-03-29T17:45:55.651Z,14.71
2023-03-29T17:48:24.029Z,14.74
2023-03-29T17:50:50.744Z,14.78
2023-03-29T17:53:17.281Z,14.71
2023-03-29T17:55:43.821Z,14.70
2023-03-29T17:58:10.373Z,14.64
2023-03-29T18:00:37.313Z,14.57
2023-03-29T18:03:03.970Z,14.57
2023-03-29T18:05:30.650Z,14.52
2023-03-29T18:07:57.421Z,14.48
2023-03-29T18:10:23.958Z,14.49
2023-03-29T18:12:50.608Z,14.48
2023-03-29T18:15:17.511Z,14.42
2023-03-29T18:17:44.677Z,14.33
2023-03-29T18:20:12.041Z,14.30
2023-03-29T18:22:39.786Z,14.25
2023-03-29T18:25:07.481Z,14.20
2023-03-29T18:27:34.062Z,14.17
2023-03-29T18:30:00.651Z,14.13
2023-03-29T18:32:27.267Z,14.11
2023-03-29T18:34:53.912Z,14.03
2023-03-29T18:37:21.094Z,13.94
2023-03-29T18:39:48.053Z,13.81
2023-03-29T18:42:14.865Z,13.70
2023-03-29T18:44:42.238Z,13.57
2023-03-29T18:47:09.020Z,13.52
2023-03-29T18:49:36.985Z,13.43
2023-03-29T18:52:04.739Z,13.39
2023-03-29T18:54:31.452Z,13.38
2023-03-29T18:57:00.673Z,13.35
2023-03-29T18:59:27.288Z,13.33
2023-03-29T19:01:53.895Z,13.27
2023-03-29T19:04:20.472Z,13.25
2023-03-29T19:06:47.532Z,13.29
2023-03-29T19:09:14.384Z,13.28
2023-03-29T19:11:41.110Z,13.24
2023-03-29T19:14:09.312Z,13.23
2023-03-29T19:16:36.170Z,13.16
2023-03-29T19:19:02.803Z,13.19
2023-03-29T19:21:31.654Z,13.17
2023-03-29T19:24:00.635Z,13.19
2023-03-29T19:26:29.533Z,13.24
2023-03-29T19:28:56.313Z,13.31
2023-03-29T19:31:23.047Z,13.40
2023-03-29T19:33:49.930Z,13.50
2023-03-29T19:36:16.510Z,13.57
2023-03-29T19:38:43.098Z,13.58
2023-03-29T19:41:09.666Z,13.61
2023-03-29T19:43:36.390Z,13.59
2023-03-29T19:46:08.302Z,13.59
2023-03-29T19:48:35.018Z,13.61
2023-03-29T19:51:03.117Z,13.59
2023-03-29T19:53:31.150Z,13.60
2023-03-29T19:55:58.286Z,13.60
2023-03-29T19:58:25.456Z,13.54
2023-03-29T20:00:53.234Z,13.53
2023-03-29T20:03:21.836Z,13.47
2023-03-29T20:05:48.533Z,13.45
2023-03-29T20:08:15.092Z,13.48
2023-03-29T20:10:42.481Z,13.43
2023-03-29T20:13:09.195Z,13.38
2023-03-29T20:15:35.958Z,13.33
2023-03-29T20:18:02.548Z,13.34
2023-03-29T20:20:30.049Z,13.31
2023-03-29T20:23:04.712Z,13.33
2023-03-29T20:25:31.938Z,13.27
2023-03-29T20:27:59.661Z,13.22
2023-03-29T20:30:26.464Z,13.13
2023-03-29T20:32:53.347Z,13.16
2023-03-29T20:35:19.984Z,13.10
2023-03-29T20:37:46.608Z,13.09
2023-03-29T20:40:15.649Z,13.18
2023-03-29T20:42:42.439Z,13.23
2023-03-29T20:45:18.653Z,13.30
2023-03-29T20:47:50.600Z,13.45
2023-03-29T20:50:20.459Z,13.54
2023-03-29T20:52:47.057Z,13.62
2023-03-29T20:55:22.256Z,13.62
2023-03-29T20:57:51.197Z,13.63
2023-03-29T21:00:19.801Z,13.63
2023-03-29T21:02:47.132Z,13.60
2023-03-29T21:05:13.919Z,13.59
2023-03-29T21:07:40.557Z,13.57
2023-03-29T21:10:07.572Z,13.55
2023-03-29T21:12:34.096Z,13.46
2023-03-29T21:15:02.399Z,13.47
2023-03-29T21:17:28.979Z,13.55
2023-03-29T21:19:55.694Z,13.41
2023-03-29T21:22:23.258Z,13.51
2023-03-29T21:24:49.800Z,13.76
2023-03-29T21:27:16.430Z,13.88
2023-03-29T21:29:42.971Z,13.96
2023-03-29T21:32:10.854Z,14.00
2023-03-29T21:34:37.492Z,13.99
2023-03-29T21:37:04.003Z,13.98
2023-03-29T21:39:30.790Z,13.91
2023-03-29T21:41:57.368Z,13.92
2023-03-29T21:44:23.933Z,13.97
2023-03-29T21:46:50.459Z,13.97
2023-03-29T21:49:17.217Z,13.96
2023-03-29T21:51:43.946Z,13.90
2023-03-29T21:54:11.415Z,13.85
2023-03-29T21:56:38.169Z,13.81
2023-03-29T21:59:04.892Z,13.80
2023-03-29T22:01:31.563Z,13.79
2023-03-29T22:03:58.224Z,13.85
2023-03-29T22:06:24.863Z,13.85
2023-03-29T22:08:53.115Z,13.87
2023-03-29T22:11:20.155Z,13.78
2023-03-29T22:13:46.780Z,13.79
2023-03-29T22:16:14.116Z,13.84
2023-03-29T22:18:43.853Z,13.80
2023-03-29T22:21:17.709Z,13.87
2023-03-29T22:23:46.670Z,13.78
2023-03-29T22:26:16.202Z,13.75
2023-03-29T22:28:43.525Z,13.87
2023-03-29T22:31:12.848Z,13.94
2023-03-29T22:33:40.696Z,14.00
2023-03-29T22:36:29.062Z,13.98
2023-03-29T22:38:55.646Z,13.99
2023-03-29T22:41:24.013Z,14.08
2023-03-29T22:43:52.510Z,14.13
2023-03-29T22:46:19.756Z,14.10
2023-03-29T22:48:46.850Z,14.11
2023-03-29T22:51:13.542Z,14.09
2023-03-29T22:53:40.125Z,14.16
2023-03-29T22:56:07.876Z,14.21
2023-03-29T22:58:34.808Z,14.29
2023-03-29T23:01:01.497Z,14.39
2023-03-29T23:03:28.312Z,14.43
2023-03-29T23:05:57.146Z,14.41
2023-03-29T23:08:24.871Z,14.45
2023-03-29T23:10:52.428Z,14.42
2023-03-29T23:13:33.420Z,14.34
2023-03-29T23:16:01.885Z,14.29
2023-03-29T23:18:30.300Z,14.29
2023-03-29T23:20:58.326Z,14.21
2023-03-29T23:23:27.058Z,14.09
2023-03-29T23:25:55.738Z,13.98
2023-03-29T23:28:24.945Z,13.82
2023-03-29T23:31:06.883Z,13.68
2023-03-29T23:33:35.775Z,13.54
2023-03-29T23:36:04.846Z,13.45
2023-03-29T23:38:34.166Z,13.49
2023-03-29T23:41:02.866Z,13.50
2023-03-29T23:43:32.835Z,13.62
2023-03-29T23:46:01.733Z,13.74
2023-03-29T23:48:28.836Z,13.73
2023-03-29T23:50:58.990Z,13.73
2023-03-29T23:53:28.538Z,13.78
2023-03-29T23:56:00.420Z,13.80
2023-03-29T23:58:34.757Z,13.77
